createdAt,value
2023-02-25T00:00:24.517Z,81.70
2023-02-25T00:05:43.506Z,82.33
2023-02-25T00:08:10.139Z,82.33
2023-02-25T00:11:11.514Z,82.10
2023-02-25T00:13:40.685Z,82.67
2023-02-25T00:16:07.975Z,83.00
2023-02-25T00:18:34.757Z,82.78
2023-02-25T00:21:06.126Z,82.98
2023-02-25T00:23:33.084Z,82.74
2023-02-25T00:26:05.496Z,82.41
2023-02-25T00:28:33.418Z,82.03
2023-02-25T00:31:00.133Z,82.59
2023-02-25T00:33:26.902Z,82.39
2023-02-25T00:35:56.147Z,81.83
2023-02-25T00:38:22.892Z,82.29
2023-02-25T00:40:49.471Z,81.74
2023-02-25T00:43:16.095Z,81.53
2023-02-25T00:45:42.761Z,82.02
2023-02-25T00:48:09.312Z,81.81
2023-02-25T00:53:05.564Z,81.62
2023-02-25T00:55:33.508Z,81.81
2023-02-25T00:58:03.626Z,81.80
2023-02-25T01:00:35.958Z,82.42
2023-02-25T01:03:09.721Z,81.76
2023-02-25T01:05:41.687Z,82.04
2023-02-25T01:08:08.383Z,81.55
2023-02-25T01:10:34.910Z,81.06
2023-02-25T01:13:01.456Z,81.47
2023-02-25T01:15:30.606Z,82.08
2023-02-25T01:17:57.124Z,81.87
2023-02-25T01:20:24.264Z,81.95
2023-02-25T01:22:50.808Z,81.52
2023-02-25T01:25:18.519Z,82.07
2023-02-25T01:27:45.035Z,81.74
2023-02-25T01:30:12.237Z,82.10
2023-02-25T01:32:38.916Z,82.58
2023-02-25T01:35:06.919Z,82.59
2023-02-25T01:37:33.494Z,82.68
2023-02-25T01:40:00.053Z,82.65
2023-02-25T01:42:26.812Z,83.09
2023-02-25T01:45:17.888Z,83.19
2023-02-25T01:47:52.178Z,82.77
2023-02-25T01:50:21.871Z,83.54
2023-02-25T01:52:48.832Z,83.25
2023-02-25T01:55:15.864Z,82.76
2023-02-25T01:57:42.431Z,83.16
2023-02-25T02:00:16.529Z,82.86
2023-02-25T02:02:47.726Z,82.88
2023-02-25T02:05:15.250Z,82.74
2023-02-25T02:07:41.762Z,82.59
2023-02-25T02:10:11.172Z,82.82
2023-02-25T02:12:42.292Z,82.60
2023-02-25T02:15:12.674Z,82.45
2023-02-25T02:17:49.660Z,82.83
2023-02-25T02:20:21.440Z,82.07
2023-02-25T02:23:16.738Z,81.99
2023-02-25T02:25:58.507Z,82.38
2023-02-25T02:28:55.775Z,81.45
2023-02-25T02:31:28.472Z,81.72
2023-02-25T02:34:19.591Z,81.80
2023-02-25T02:37:01.324Z,82.14
2023-02-25T02:39:58.472Z,81.55
2023-02-25T02:42:43.784Z,81.86
2023-02-25T02:45:35.277Z,81.67
2023-02-25T02:48:09.985Z,82.19
2023-02-25T02:50:40.954Z,82.56
2023-02-25T02:53:14.535Z,81.88
2023-02-25T02:55:46.342Z,82.58
2023-02-25T02:58:25.323Z,82.34
2023-02-25T03:00:58.377Z,82.21
2023-02-25T03:03:36.496Z,82.17
2023-02-25T03:06:07.472Z,82.46
2023-02-25T03:08:40.397Z,82.85
2023-02-25T03:11:07.006Z,82.63
2023-02-25T03:13:33.541Z,82.35
2023-02-25T03:16:04.254Z,82.77
2023-02-25T03:18:39.384Z,82.81
2023-02-25T03:21:15.003Z,82.43
2023-02-25T03:23:46.474Z,82.59
2023-02-25T03:26:18.740Z,82.27
2023-02-25T03:28:46.276Z,81.78
2023-02-25T03:31:12.780Z,81.59
2023-02-25T03:33:49.019Z,82.12
2023-02-25T03:36:44.133Z,81.99
2023-02-25T03:39:26.892Z,82.18
2023-02-25T03:41:56.430Z,81.91
2023-02-25T03:44:30.447Z,82.32
2023-02-25T03:46:58.839Z,82.31
2023-02-25T03:49:43.180Z,81.31
2023-02-25T03:52:17.073Z,81.94
2023-02-25T03:54:43.680Z,82.29
2023-02-25T03:57:10.320Z,81.94
2023-02-25T03:59:37.110Z,81.87
2023-02-25T04:02:03.785Z,81.91
2023-02-25T04:04:32.884Z,81.56
2023-02-25T04:06:59.850Z,81.39
2023-02-25T04:09:26.784Z,81.41
2023-02-25T04:11:57.132Z,81.10
2023-02-25T04:14:24.577Z,80.96
2023-02-25T04:16:51.230Z,81.25
2023-02-25T04:19:18.786Z,81.64
2023-02-25T04:21:45.295Z,81.71
2023-02-25T04:24:11.864Z,81.79
2023-02-25T04:26:38.404Z,81.72
2023-02-25T04:29:05.084Z,81.72
2023-02-25T04:31:31.989Z,81.57
2023-02-25T04:33:58.625Z,81.63
2023-02-25T04:36:31.396Z,81.97
2023-02-25T04:39:00.588Z,81.92
2023-02-25T04:41:33.160Z,81.46
2023-02-25T04:44:00.689Z,81.88
2023-02-25T04:46:27.419Z,82.05
2023-02-25T04:48:54.206Z,82.05
2023-02-25T04:51:21.278Z,82.20
2023-02-25T04:53:48.396Z,82.29
2023-02-25T04:56:15.294Z,81.96
2023-02-25T04:58:41.904Z,81.75
2023-02-25T05:01:12.375Z,81.83
2023-02-25T05:03:39.292Z,81.65
2023-02-25T05:06:06.774Z,82.13
2023-02-25T05:08:34.246Z,82.65
2023-02-25T05:11:01.932Z,81.96
2023-02-25T05:13:29.197Z,82.46
2023-02-25T05:16:10.952Z,82.67
2023-02-25T05:18:42.277Z,82.23
2023-02-25T05:21:12.306Z,82.39
2023-02-25T05:23:40.064Z,82.49
2023-02-25T05:26:07.009Z,82.71
2023-02-25T05:28:33.880Z,82.49
2023-02-25T05:31:00.798Z,82.71
2023-02-25T05:33:27.595Z,82.40
2023-02-25T05:35:54.127Z,82.82
2023-02-25T05:38:20.676Z,82.50
2023-02-25T05:40:47.756Z,83.16
2023-02-25T05:43:14.284Z,82.87
2023-02-25T05:45:40.866Z,82.77
2023-02-25T05:48:07.887Z,82.80
2023-02-25T05:50:41.879Z,82.19
2023-02-25T05:53:09.870Z,82.22
2023-02-25T05:55:41.814Z,82.42
2023-02-25T05:58:08.604Z,82.10
2023-02-25T06:00:36.298Z,81.94
2023-02-25T06:03:02.935Z,82.16
2023-02-25T06:05:32.298Z,81.84
2023-02-25T06:07:59.107Z,81.82
2023-02-25T06:10:27.611Z,81.72
2023-02-25T06:12:54.167Z,81.77
2023-02-25T06:15:20.735Z,81.62
2023-02-25T06:17:47.270Z,80.82
2023-02-25T06:20:16.591Z,81.59
2023-02-25T06:22:43.649Z,81.49
2023-02-25T06:25:10.186Z,80.93
2023-02-25T06:27:37.142Z,80.72
2023-02-25T06:30:04.895Z,80.82
2023-02-25T06:32:31.685Z,81.08
2023-02-25T06:34:58.426Z,80.75
2023-02-25T06:37:25.165Z,81.23
2023-02-25T06:39:53.167Z,80.57
2023-02-25T06:42:20.266Z,80.61
2023-02-25T06:44:46.835Z,81.09
2023-02-25T06:47:13.342Z,80.38
2023-02-25T06:49:40.202Z,80.59
2023-02-25T06:52:06.788Z,80.64
2023-02-25T06:54:33.355Z,81.15
2023-02-25T06:57:00.866Z,81.28
2023-02-25T06:59:27.505Z,80.96
2023-02-25T07:01:54.192Z,80.91
2023-02-25T07:04:20.847Z,81.44
2023-02-25T07:06:47.471Z,81.14
2023-02-25T07:09:14.017Z,81.20
2023-02-25T07:11:40.638Z,81.52
2023-02-25T07:14:07.356Z,81.55
2023-02-25T07:16:34.686Z,81.93
2023-02-25T07:19:02.451Z,81.34
2023-02-25T07:21:31.055Z,81.57
2023-02-25T07:23:58.793Z,81.56
2023-02-25T07:26:43.045Z,82.17
2023-02-25T07:29:09.793Z,81.89
2023-02-25T07:31:36.399Z,81.79
2023-02-25T07:34:08.270Z,81.16
2023-02-25T07:36:38.513Z,82.08
2023-02-25T07:39:06.800Z,81.38
2023-02-25T07:41:36.053Z,81.46
2023-02-25T07:44:05.108Z,81.42
2023-02-25T07:46:32.604Z,81.09
2023-02-25T07:48:59.867Z,80.92
2023-02-25T07:51:27.117Z,80.72
2023-02-25T07:53:58.521Z,80.38
2023-02-25T07:56:28.027Z,80.27
2023-02-25T07:58:54.696Z,80.62
2023-02-25T08:01:27.883Z,81.53
2023-02-25T08:03:57.494Z,81.29
2023-02-25T08:06:24.532Z,82.34
2023-02-25T08:08:54.776Z,82.70
2023-02-25T08:11:23.527Z,83.38
2023-02-25T08:13:50.746Z,82.79
2023-02-25T08:16:20.788Z,83.46
2023-02-25T08:18:48.130Z,84.15
2023-02-25T08:21:18.574Z,84.27
2023-02-25T08:23:45.402Z,83.97
2023-02-25T08:26:17.541Z,84.28
2023-02-25T08:28:44.842Z,83.94
2023-02-25T08:31:15.121Z,84.42
2023-02-25T08:33:43.790Z,84.88
2023-02-25T08:36:26.023Z,84.55
2023-02-25T08:38:59.512Z,84.50
2023-02-25T08:41:29.536Z,83.91
2023-02-25T08:43:58.277Z,83.86
2023-02-25T08:46:27.700Z,83.61
2023-02-25T08:48:54.978Z,83.16
2023-02-25T08:51:27.756Z,83.34
2023-02-25T08:53:54.393Z,83.05
2023-02-25T08:56:21.327Z,82.03
2023-02-25T08:58:47.933Z,82.26
2023-02-25T09:01:16.912Z,82.45
2023-02-25T09:03:53.819Z,81.79
2023-02-25T09:06:27.943Z,81.58
2023-02-25T09:08:56.343Z,81.56
2023-02-25T09:11:26.423Z,81.35
2023-02-25T09:13:54.394Z,81.18
2023-02-25T09:16:21.355Z,81.59
2023-02-25T09:18:49.003Z,81.17
2023-02-25T09:21:15.938Z,81.10
2023-02-25T09:23:42.975Z,80.33
2023-02-25T09:26:10.056Z,77.58
2023-02-25T09:28:36.738Z,77.94
2023-02-25T09:31:04.147Z,77.71
2023-02-25T09:33:32.145Z,78.66
2023-02-25T09:36:08.651Z,79.59
2023-02-25T09:38:36.903Z,80.85
2023-02-25T09:41:04.744Z,80.75
2023-02-25T09:43:40.047Z,81.71
2023-02-25T09:46:14.113Z,83.36
2023-02-25T09:48:59.846Z,83.11
2023-02-25T09:51:31.567Z,83.44
2023-02-25T09:54:16.726Z,83.58
2023-02-25T09:56:45.821Z,83.89
2023-02-25T09:59:21.576Z,83.99
2023-02-25T10:01:58.642Z,83.78
2023-02-25T10:04:37.812Z,84.81
2023-02-25T10:07:15.871Z,84.02
2023-02-25T10:09:54.148Z,83.81
2023-02-25T10:12:45.871Z,84.41
2023-02-25T10:15:27.732Z,84.98
2023-02-25T10:18:08.352Z,84.79
2023-02-25T10:20:39.242Z,84.71
2023-02-25T10:23:27.716Z,84.47
2023-02-25T10:26:09.283Z,84.88
2023-02-25T10:28:36.068Z,84.51
2023-02-25T10:31:10.031Z,83.28
2023-02-25T10:33:40.894Z,83.67
2023-02-25T10:36:15.634Z,83.85
2023-02-25T10:38:48.754Z,83.73
2023-02-25T10:41:16.919Z,83.85
2023-02-25T10:43:44.740Z,82.81
2023-02-25T10:46:23.226Z,83.26
2023-02-25T10:49:16.319Z,82.36
2023-02-25T10:51:56.941Z,82.09
2023-02-25T10:54:24.885Z,80.94
2023-02-25T10:56:52.738Z,80.10
2023-02-25T10:59:31.325Z,80.77
2023-02-25T11:02:00.231Z,78.70
2023-02-25T11:04:37.553Z,73.08
2023-02-25T11:07:38.195Z,72.89
2023-02-25T11:10:15.218Z,72.32
2023-02-25T11:12:49.199Z,71.49
2023-02-25T11:15:37.845Z,71.47
2023-02-25T11:18:23.903Z,71.68
2023-02-25T11:20:59.493Z,71.74
2023-02-25T11:23:37.906Z,71.18
2023-02-25T11:26:06.885Z,71.29
2023-02-25T11:28:39.788Z,69.62
2023-02-25T11:31:19.158Z,67.76
2023-02-25T11:33:57.500Z,68.78
2023-02-25T11:36:30.798Z,69.14
2023-02-25T11:39:16.584Z,67.92
2023-02-25T11:41:45.281Z,66.42
2023-02-25T11:44:30.190Z,65.77
2023-02-25T11:47:20.452Z,65.10
2023-02-25T11:49:51.480Z,65.07
2023-02-25T11:52:17.940Z,64.49
2023-02-25T11:55:12.733Z,64.59
2023-02-25T11:58:03.997Z,63.15
2023-02-25T12:00:40.155Z,61.73
2023-02-25T12:03:40.413Z,62.73
2023-02-25T12:06:21.662Z,62.44
2023-02-25T12:09:10.373Z,61.61
2023-02-25T12:11:53.334Z,62.17
2023-02-25T12:14:44.981Z,63.16
2023-02-25T12:17:30.423Z,63.16
2023-02-25T12:20:50.402Z,62.56
2023-02-25T12:23:45.032Z,62.70
2023-02-25T12:26:38.247Z,62.62
2023-02-25T12:29:32.288Z,61.22
2023-02-25T12:32:26.333Z,60.43
2023-02-25T12:35:15.469Z,59.03
2023-02-25T12:37:51.446Z,57.44
2023-02-25T12:40:41.136Z,57.73
2023-02-25T12:43:41.787Z,57.11
2023-02-25T12:46:33.155Z,55.89
2023-02-25T12:49:08.602Z,56.07
2023-02-25T12:51:44.222Z,53.34
2023-02-25T12:54:26.122Z,52.57
2023-02-25T12:57:18.870Z,52.53
2023-02-25T12:59:57.743Z,52.70
2023-02-25T13:02:36.359Z,53.03
2023-02-25T13:05:25.866Z,50.40
2023-02-25T13:07:52.383Z,49.30
2023-02-25T13:10:32.430Z,49.27
2023-02-25T13:13:12.812Z,49.83
2023-02-25T13:16:10.168Z,50.61
2023-02-25T13:18:55.593Z,50.93
2023-02-25T13:21:28.188Z,50.23
2023-02-25T13:24:06.241Z,49.55
2023-02-25T13:27:03.806Z,49.51
2023-02-25T13:29:50.307Z,49.57
2023-02-25T13:32:27.311Z,49.57
2023-02-25T13:35:14.858Z,49.19
2023-02-25T13:38:02.210Z,49.14
2023-02-25T13:40:51.504Z,48.49
2023-02-25T13:43:48.999Z,46.36
2023-02-25T13:46:56.555Z,45.86
2023-02-25T13:49:38.465Z,45.26
2023-02-25T13:52:25.523Z,45.31
2023-02-25T13:55:16.795Z,45.59
2023-02-25T13:58:07.551Z,45.01
2023-02-25T14:00:58.972Z,43.76
2023-02-25T14:03:28.541Z,44.48
2023-02-25T14:06:23.546Z,43.12
2023-02-25T14:09:08.510Z,42.81
2023-02-25T14:11:51.351Z,43.52
2023-02-25T14:14:42.370Z,43.19
2023-02-25T14:17:28.427Z,41.83
2023-02-25T14:20:11.766Z,42.69
2023-02-25T14:22:50.629Z,43.33
2023-02-25T14:25:36.175Z,43.80
2023-02-25T14:28:36.854Z,40.15
2023-02-25T14:31:42.013Z,40.02
2023-02-25T14:34:36.398Z,40.42
2023-02-25T14:37:40.718Z,40.09
2023-02-25T14:40:30.567Z,39.95
2023-02-25T14:43:35.157Z,40.88
2023-02-25T14:46:29.544Z,42.48
2023-02-25T14:49:15.137Z,42.05
2023-02-25T14:52:16.641Z,42.45
2023-02-25T14:54:52.251Z,42.68
2023-02-25T14:57:40.573Z,43.17
2023-02-25T15:00:43.579Z,43.08
2023-02-25T15:03:31.480Z,42.64
2023-02-25T15:06:23.713Z,43.24
2023-02-25T15:09:02.324Z,43.30
2023-02-25T15:11:31.810Z,42.99
2023-02-25T15:14:08.106Z,42.71
2023-02-25T15:16:41.432Z,41.95
2023-02-25T15:19:30.464Z,42.08
2023-02-25T15:22:20.880Z,42.65
2023-02-25T15:24:48.534Z,42.72
2023-02-25T15:27:36.710Z,42.94
2023-02-25T15:30:08.468Z,42.81
2023-02-25T15:32:47.424Z,41.69
2023-02-25T15:35:21.786Z,42.42
2023-02-25T15:37:51.120Z,42.67
2023-02-25T15:40:17.656Z,41.81
2023-02-25T15:42:48.781Z,42.23
2023-02-25T15:45:27.881Z,41.71
2023-02-25T15:48:12.645Z,42.48
2023-02-25T15:50:47.914Z,42.71
2023-02-25T15:53:21.229Z,42.53
2023-02-25T15:55:49.308Z,42.73
2023-02-25T15:58:24.778Z,43.27
2023-02-25T16:00:56.297Z,43.87
2023-02-25T16:03:39.434Z,43.51
2023-02-25T16:06:12.594Z,43.79
2023-02-25T16:09:00.986Z,43.79
2023-02-25T16:11:36.729Z,42.81
2023-02-25T16:14:15.029Z,42.79
2023-02-25T16:16:48.223Z,42.56
2023-02-25T16:19:19.081Z,42.59
2023-02-25T16:21:51.620Z,43.17
2023-02-25T16:24:19.146Z,43.59
2023-02-25T16:26:45.688Z,44.24
2023-02-25T16:29:35.442Z,44.11
2023-02-25T16:32:17.546Z,44.22
2023-02-25T16:35:04.209Z,44.36
2023-02-25T16:38:13.027Z,44.03
2023-02-25T16:40:42.676Z,44.36
2023-02-25T16:43:16.638Z,44.21
2023-02-25T16:46:02.688Z,44.28
2023-02-25T16:48:34.799Z,44.19
2023-02-25T16:51:10.616Z,44.54
2023-02-25T16:53:43.742Z,44.93
2023-02-25T16:56:23.956Z,44.88
2023-02-25T16:59:17.385Z,45.27
2023-02-25T17:01:53.333Z,45.47
2023-02-25T17:04:24.159Z,46.07
2023-02-25T17:07:14.931Z,46.22
2023-02-25T17:10:14.220Z,46.02
2023-02-25T17:12:45.896Z,46.42
2023-02-25T17:15:24.997Z,46.18
2023-02-25T17:18:24.415Z,46.25
2023-02-25T17:21:08.363Z,46.27
2023-02-25T17:23:41.198Z,46.23
2023-02-25T17:26:11.556Z,46.50
2023-02-25T17:28:44.051Z,47.04
2023-02-25T17:31:18.494Z,47.22
2023-02-25T17:33:55.658Z,47.34
2023-02-25T17:36:41.099Z,47.40
2023-02-25T17:39:19.592Z,47.31
2023-02-25T17:41:47.321Z,47.78
2023-02-25T17:44:42.682Z,47.69
2023-02-25T17:47:12.913Z,47.24
2023-02-25T17:49:39.768Z,47.64
2023-02-25T17:52:16.693Z,47.77
2023-02-25T17:54:47.873Z,48.28
2023-02-25T17:57:18.729Z,48.36
2023-02-25T18:00:09.094Z,48.42
2023-02-25T18:02:41.581Z,48.58
2023-02-25T18:05:14.259Z,48.56
2023-02-25T18:07:47.432Z,48.53
2023-02-25T18:10:23.080Z,49.07
2023-02-25T18:12:50.714Z,48.92
2023-02-25T18:15:22.150Z,48.56
2023-02-25T18:17:54.430Z,49.17
2023-02-25T18:20:36.479Z,49.71
2023-02-25T18:23:15.349Z,49.97
2023-02-25T18:25:45.002Z,49.72
2023-02-25T18:28:21.729Z,50.39
2023-02-25T18:30:50.195Z,50.30
2023-02-25T18:33:19.023Z,50.75
2023-02-25T18:35:47.216Z,50.86
2023-02-25T18:38:21.115Z,51.13
2023-02-25T18:40:49.129Z,51.33
2023-02-25T18:43:22.514Z,51.31
2023-02-25T18:45:49.126Z,51.38
2023-02-25T18:48:16.111Z,51.36
2023-02-25T18:50:44.657Z,51.78
2023-02-25T18:53:15.580Z,52.02
2023-02-25T18:55:44.937Z,52.23
2023-02-25T18:58:18.645Z,52.25
2023-02-25T19:00:48.819Z,52.54
2023-02-25T19:03:25.562Z,52.63
2023-02-25T19:05:52.449Z,52.78
2023-02-25T19:08:19.086Z,52.99
2023-02-25T19:10:45.829Z,52.90
2023-02-25T19:13:37.911Z,53.44
2023-02-25T19:16:05.535Z,53.57
2023-02-25T19:18:32.497Z,53.89
2023-02-25T19:20:59.038Z,54.47
2023-02-25T19:23:25.845Z,54.86
2023-02-25T19:26:00.149Z,54.86
2023-02-25T19:28:27.161Z,54.75
2023-02-25T19:30:53.773Z,55.57
2023-02-25T19:33:20.409Z,55.48
2023-02-25T19:35:46.985Z,55.36
2023-02-25T19:38:16.259Z,55.92
2023-02-25T19:40:46.523Z,55.83
2023-02-25T19:43:13.425Z,56.00
2023-02-25T19:45:40.859Z,56.01
2023-02-25T19:48:08.152Z,55.93
2023-02-25T19:50:35.550Z,55.98
2023-02-25T19:53:05.575Z,56.50
2023-02-25T19:55:33.380Z,56.46
2023-02-25T19:58:00.057Z,56.30
2023-02-25T20:00:26.701Z,56.26
2023-02-25T20:02:56.348Z,56.41
2023-02-25T20:05:25.620Z,56.79
2023-02-25T20:07:52.586Z,56.65
2023-02-25T20:10:19.619Z,56.40
2023-02-25T20:12:47.079Z,56.84
2023-02-25T20:15:15.483Z,56.78
2023-02-25T20:17:46.341Z,56.72
2023-02-25T20:20:14.610Z,57.19
2023-02-25T20:22:42.908Z,57.37
2023-02-25T20:25:10.290Z,57.14
2023-02-25T20:27:39.281Z,57.26
2023-02-25T20:30:07.007Z,57.33
2023-02-25T20:32:34.229Z,57.80
2023-02-25T20:35:01.112Z,58.28
2023-02-25T20:37:33.664Z,58.22
2023-02-25T20:40:00.595Z,58.57
2023-02-25T20:42:31.462Z,58.67
2023-02-25T20:44:59.338Z,58.56
2023-02-25T20:47:36.563Z,58.74
2023-02-25T20:50:07.058Z,58.96
2023-02-25T20:52:34.242Z,58.91
2023-02-25T20:55:00.837Z,59.41
2023-02-25T20:57:27.573Z,59.33
2023-02-25T20:59:54.599Z,59.33
2023-02-25T21:02:21.754Z,59.38
2023-02-25T21:04:48.657Z,59.14
2023-02-25T21:07:15.272Z,59.43
2023-02-25T21:09:41.935Z,59.68
2023-02-25T21:12:08.784Z,60.05
2023-02-25T21:14:35.476Z,60.27
2023-02-25T21:17:02.041Z,60.07
2023-02-25T21:19:28.579Z,60.22
2023-02-25T21:21:55.445Z,60.23
2023-02-25T21:24:22.035Z,60.51
2023-02-25T21:26:48.624Z,60.44
2023-02-25T21:29:16.010Z,60.75
2023-02-25T21:31:43.013Z,60.88
2023-02-25T21:34:13.022Z,61.42
2023-02-25T21:36:40.472Z,61.37
2023-02-25T21:39:09.222Z,61.12
2023-02-25T21:41:37.219Z,61.11
2023-02-25T21:44:04.270Z,61.30
2023-02-25T21:46:30.902Z,61.41
2023-02-25T21:48:57.517Z,61.13
2023-02-25T21:51:26.346Z,61.25
2023-02-25T21:53:58.115Z,61.31
2023-02-25T21:56:26.067Z,61.54
2023-02-25T21:58:58.268Z,61.35
2023-02-25T22:01:28.847Z,61.97
2023-02-25T22:03:55.667Z,62.05
2023-02-25T22:06:26.132Z,62.37
2023-02-25T22:08:53.747Z,62.59
2023-02-25T22:11:23.980Z,62.34
2023-02-25T22:13:51.015Z,62.70
2023-02-25T22:16:17.941Z,62.59
2023-02-25T22:18:44.956Z,62.60
2023-02-25T22:21:16.988Z,62.93
2023-02-25T22:23:43.619Z,63.24
2023-02-25T22:26:15.433Z,63.14
2023-02-25T22:28:43.460Z,63.33
2023-02-25T22:31:14.862Z,63.76
2023-02-25T22:33:41.689Z,63.79
2023-02-25T22:36:09.468Z,63.98
2023-02-25T22:38:38.548Z,63.79
2023-02-25T22:41:10.793Z,64.54
2023-02-25T22:43:37.933Z,64.81
2023-02-25T22:46:09.510Z,65.05
2023-02-25T22:48:38.573Z,64.83
2023-02-25T22:51:06.910Z,65.25
2023-02-25T22:53:33.508Z,65.09
2023-02-25T22:56:06.729Z,65.51
2023-02-25T22:58:33.691Z,65.44
2023-02-25T23:01:00.436Z,65.70
2023-02-25T23:03:27.157Z,65.97
2023-02-25T23:05:54.875Z,65.88
2023-02-25T23:08:22.525Z,66.23
2023-02-25T23:10:49.421Z,66.48
2023-02-25T23:13:18.939Z,66.39
2023-02-25T23:15:49.142Z,66.47
2023-02-25T23:18:16.179Z,66.54
2023-02-25T23:20:43.585Z,66.80
2023-02-25T23:23:18.014Z,67.13
2023-02-25T23:25:54.591Z,67.21
2023-02-25T23:28:21.205Z,67.25
2023-02-25T23:30:47.901Z,66.89
2023-02-25T23:33:14.531Z,67.20
2023-02-25T23:35:42.128Z,67.10
2023-02-25T23:38:09.572Z,67.61
2023-02-25T23:40:36.169Z,67.58
2023-02-25T23:43:02.774Z,67.65
2023-02-25T23:45:32.803Z,68.01
2023-02-25T23:47:59.409Z,67.78
2023-02-25T23:50:27.063Z,67.74
2023-02-25T23:52:54.000Z,68.10
2023-02-25T23:55:21.080Z,68.35
2023-02-25T23:57:50.069Z,68.78
